createdAt,value
2019-06-27T00:00:58.251Z,100992.49
2019-06-27T00:03:26.006Z,100994.23
2019-06-27T00:05:53.748Z,100999.75
2019-06-27T00:08:21.429Z,100993.17
2019-06-27T00:10:49.388Z,100997.69
2019-06-27T00:13:17.230Z,100999.66
2019-06-27T00:15:45.686Z,100996.23
2019-06-27T00:18:13.398Z,100998.72
2019-06-27T00:20:41.108Z,100998.72
2019-06-27T00:23:08.845Z,101006.63
2019-06-27T00:25:36.636Z,101001.66
2019-06-27T00:28:04.399Z,101005.00
2019-06-27T00:30:32.097Z,100999.31
2019-06-27T00:32:59.781Z,101009.78
2019-06-27T00:35:27.494Z,101011.64
2019-06-27T00:37:55.242Z,101006.69
2019-06-27T00:40:23.084Z,101011.11
2019-06-27T00:42:50.867Z,101016.42
2019-06-27T00:45:18.606Z,101014.40
2019-06-27T00:47:46.341Z,101023.53
2019-06-27T00:50:14.036Z,101016.13
2019-06-27T00:52:41.808Z,101025.72
2019-06-27T00:55:09.536Z,101021.72
2019-06-27T00:57:37.264Z,101023.50
2019-06-27T01:00:05.248Z,101021.75
2019-06-27T01:02:33.010Z,101022.22
2019-06-27T01:05:00.743Z,101018.77
2019-06-27T01:07:28.471Z,101025.73
2019-06-27T01:09:56.268Z,101019.97
2019-06-27T01:12:23.964Z,101033.77
2019-06-27T01:14:51.687Z,101034.46
2019-06-27T01:17:19.405Z,101038.61
2019-06-27T01:19:47.124Z,101028.70
2019-06-27T01:22:14.828Z,101020.75
2019-06-27T01:24:42.529Z,101020.93
2019-06-27T01:27:10.245Z,101022.67
2019-06-27T01:29:38.140Z,101025.49
2019-06-27T01:32:05.831Z,101031.27
2019-06-27T01:34:33.552Z,101031.48
2019-06-27T01:37:01.347Z,101024.43
2019-06-27T01:39:29.084Z,101028.39
2019-06-27T01:41:56.814Z,101033.63
2019-06-27T01:44:30.626Z,101021.47
2019-06-27T01:46:59.421Z,101049.73
2019-06-27T01:49:27.555Z,101043.13
2019-06-27T01:51:55.229Z,101043.13
2019-06-27T01:54:22.965Z,101044.64
2019-06-27T01:56:50.704Z,101045.86
2019-06-27T01:59:18.404Z,101055.74
2019-06-27T02:01:46.086Z,101057.63
2019-06-27T02:04:13.756Z,101047.81
2019-06-27T02:06:41.480Z,101056.73
2019-06-27T02:09:09.155Z,101054.80
2019-06-27T02:11:36.927Z,101059.95
2019-06-27T02:14:04.592Z,101061.41
2019-06-27T02:16:32.277Z,101060.38
2019-06-27T02:18:59.960Z,101063.33
2019-06-27T02:21:27.619Z,101069.80
2019-06-27T02:23:55.281Z,101069.73
2019-06-27T02:26:22.942Z,101069.58
2019-06-27T02:28:50.617Z,101071.14
2019-06-27T02:31:18.280Z,101064.45
2019-06-27T02:33:45.940Z,101067.30
2019-06-27T02:36:13.608Z,101073.50
2019-06-27T02:38:41.296Z,101075.80
2019-06-27T02:41:09.024Z,101076.05
2019-06-27T02:43:36.707Z,101078.50
2019-06-27T02:46:04.353Z,101076.53
2019-06-27T02:48:32.012Z,101073.41
2019-06-27T02:50:59.681Z,101073.79
2019-06-27T02:53:27.329Z,101073.41
2019-06-27T02:55:54.988Z,101077.18
2019-06-27T02:58:31.378Z,101080.70
2019-06-27T03:00:52.019Z,101085.23
2019-06-27T03:03:19.794Z,101086.92
2019-06-27T03:05:47.533Z,101089.61
2019-06-27T03:08:15.197Z,101082.67
2019-06-27T03:10:42.914Z,101080.28
2019-06-27T03:13:10.588Z,101087.86
2019-06-27T03:15:38.334Z,101087.81
2019-06-27T03:18:06.036Z,101084.94
2019-06-27T03:20:33.702Z,101088.92
2019-06-27T03:23:01.365Z,101089.55
2019-06-27T03:25:29.025Z,101082.38
2019-06-27T03:27:56.705Z,101089.94
2019-06-27T03:30:24.641Z,101093.12
2019-06-27T03:32:52.296Z,101099.24
2019-06-27T03:35:20.049Z,101098.75
2019-06-27T03:37:47.693Z,101097.15
2019-06-27T03:40:15.370Z,101100.57
2019-06-27T03:42:43.037Z,101113.70
2019-06-27T03:45:15.260Z,101110.51
2019-06-27T03:47:40.094Z,101116.88
2019-06-27T03:50:07.801Z,101121.56
2019-06-27T03:52:35.462Z,101123.64
2019-06-27T03:55:03.122Z,101124.61
2019-06-27T03:57:30.813Z,101124.55
2019-06-27T03:59:58.603Z,101131.25
2019-06-27T04:02:26.326Z,101136.90
2019-06-27T04:04:54.111Z,101136.83
2019-06-27T04:07:21.769Z,101140.05
2019-06-27T04:09:49.465Z,101146.29
2019-06-27T04:12:17.159Z,101155.46
2019-06-27T04:14:44.885Z,101151.23
2019-06-27T04:17:12.535Z,101151.50
2019-06-27T04:19:40.205Z,101154.27
2019-06-27T04:22:07.896Z,101160.34
2019-06-27T04:24:35.561Z,101159.95
2019-06-27T04:27:03.220Z,101159.21
2019-06-27T04:29:34.213Z,101165.73
2019-06-27T04:32:00.252Z,101173.91
2019-06-27T04:34:27.914Z,101171.10
2019-06-27T04:36:55.573Z,101179.47
2019-06-27T04:39:23.349Z,101177.47
2019-06-27T04:41:51.063Z,101174.86
2019-06-27T04:44:18.860Z,101172.97
2019-06-27T04:46:46.720Z,101176.37
2019-06-27T04:49:14.393Z,101172.81
2019-06-27T04:51:42.096Z,101172.23
2019-06-27T04:54:09.961Z,101175.87
2019-06-27T04:56:37.677Z,101173.59
2019-06-27T04:59:05.335Z,101177.27
2019-06-27T05:01:32.999Z,101183.05
2019-06-27T05:04:00.667Z,101176.59
2019-06-27T05:06:28.321Z,101187.73
2019-06-27T05:08:55.963Z,101187.74
2019-06-27T05:11:23.686Z,101189.42
2019-06-27T05:13:51.348Z,101184.01
2019-06-27T05:16:19.018Z,101193.67
2019-06-27T05:18:46.676Z,101188.00
2019-06-27T05:21:14.333Z,101187.15
2019-06-27T05:23:42.005Z,101189.16
2019-06-27T05:26:09.736Z,101186.72
2019-06-27T05:28:37.407Z,101180.17
2019-06-27T05:31:05.232Z,101191.64
2019-06-27T05:33:33.107Z,101187.61
2019-06-27T05:36:02.476Z,101194.23
2019-06-27T05:38:30.147Z,101199.02
2019-06-27T05:40:57.810Z,101206.14
2019-06-27T05:43:25.475Z,101207.61
2019-06-27T05:45:53.128Z,101207.61
2019-06-27T05:48:20.826Z,101216.27
2019-06-27T05:50:48.536Z,101212.88
2019-06-27T05:53:16.203Z,101210.14
2019-06-27T05:55:43.850Z,101210.73
2019-06-27T05:58:11.600Z,101215.18
2019-06-27T06:00:39.251Z,101220.88
2019-06-27T06:03:06.900Z,101215.77
2019-06-27T06:05:34.677Z,101217.53
2019-06-27T06:08:02.459Z,101214.66
2019-06-27T06:10:30.135Z,101221.73
2019-06-27T06:12:57.784Z,101226.31
2019-06-27T06:15:25.479Z,101231.86
2019-06-27T06:17:53.132Z,101230.25
2019-06-27T06:20:20.779Z,101243.77
2019-06-27T06:22:48.437Z,101240.16
2019-06-27T06:25:16.189Z,101247.01
2019-06-27T06:27:43.849Z,101240.80
2019-06-27T06:30:11.565Z,101231.81
2019-06-27T06:32:39.214Z,101243.56
2019-06-27T06:35:06.862Z,101241.25
2019-06-27T06:37:34.603Z,101241.73
2019-06-27T06:40:02.284Z,101242.47
2019-06-27T06:42:30.029Z,101232.31
2019-06-27T06:44:57.690Z,101230.54
2019-06-27T06:47:25.451Z,101241.30
2019-06-27T06:49:53.193Z,101237.70
2019-06-27T06:52:20.914Z,101236.50
2019-06-27T06:54:48.625Z,101239.28
2019-06-27T06:57:16.338Z,101240.92
2019-06-27T06:59:44.001Z,101245.70
2019-06-27T07:02:11.652Z,101250.03
2019-06-27T07:04:39.399Z,101249.05
2019-06-27T07:07:07.034Z,101243.34
2019-06-27T07:09:34.931Z,101255.50
2019-06-27T07:12:02.620Z,101266.96
2019-06-27T07:14:30.378Z,101263.48
2019-06-27T07:16:58.041Z,101260.49
2019-06-27T07:19:25.700Z,101259.02
2019-06-27T07:21:53.351Z,101263.97
2019-06-27T07:24:21.023Z,101264.24
2019-06-27T07:26:48.700Z,101259.38
2019-06-27T07:29:16.367Z,101260.80
2019-06-27T07:31:44.022Z,101245.25
2019-06-27T07:34:11.672Z,101248.88
2019-06-27T07:36:39.330Z,101255.14
2019-06-27T07:39:07.116Z,101255.63
2019-06-27T07:41:34.781Z,101257.44
2019-06-27T07:44:02.500Z,101256.02
2019-06-27T07:46:30.189Z,101251.98
2019-06-27T07:48:57.861Z,101252.55
2019-06-27T07:51:25.508Z,101258.19
2019-06-27T07:53:53.164Z,101251.73
2019-06-27T07:56:20.822Z,101257.41
2019-06-27T07:58:48.541Z,101254.29
2019-06-27T08:01:16.180Z,101258.20
2019-06-27T08:03:43.836Z,101261.14
2019-06-27T08:06:11.501Z,101264.82
2019-06-27T08:08:39.160Z,101258.52
2019-06-27T08:11:06.816Z,101257.16
2019-06-27T08:13:34.468Z,101258.86
2019-06-27T08:16:02.143Z,101250.72
2019-06-27T08:18:29.795Z,101252.69
2019-06-27T08:20:57.488Z,101250.38
2019-06-27T08:23:40.455Z,101248.92
2019-06-27T08:25:54.539Z,101248.41
2019-06-27T08:28:22.305Z,101245.07
2019-06-27T08:30:50.606Z,101239.27
2019-06-27T08:33:18.288Z,101245.12
2019-06-27T08:35:46.051Z,101250.47
2019-06-27T08:38:13.712Z,101254.13
2019-06-27T08:40:41.406Z,101243.59
2019-06-27T08:43:09.071Z,101239.84
2019-06-27T08:45:36.927Z,101239.28
2019-06-27T08:48:04.600Z,101231.16
2019-06-27T08:50:32.252Z,101229.43
2019-06-27T08:53:01.442Z,101225.48
2019-06-27T08:55:29.464Z,101231.36
2019-06-27T08:57:57.197Z,101230.44
2019-06-27T09:00:24.962Z,101223.77
2019-06-27T09:02:52.616Z,101229.11
2019-06-27T09:05:20.306Z,101221.77
2019-06-27T09:07:48.096Z,101217.98
2019-06-27T09:10:15.760Z,101228.49
2019-06-27T09:12:43.424Z,101219.05
2019-06-27T09:15:11.115Z,101228.04
2019-06-27T09:17:38.903Z,101214.72
2019-06-27T09:20:06.593Z,101213.86
2019-06-27T09:22:34.272Z,101215.97
2019-06-27T09:25:02.170Z,101212.63
2019-06-27T09:27:35.120Z,101226.70
2019-06-27T09:30:02.794Z,101214.91
2019-06-27T09:32:30.452Z,101218.97
2019-06-27T09:34:58.104Z,101219.30
2019-06-27T09:37:25.762Z,101217.23
2019-06-27T09:39:53.425Z,101216.03
2019-06-27T09:42:21.071Z,101205.11
2019-06-27T09:44:48.732Z,101201.94
2019-06-27T09:47:16.399Z,101202.78
2019-06-27T09:49:44.082Z,101207.33
2019-06-27T09:52:11.748Z,101200.20
2019-06-27T09:54:39.413Z,101194.95
2019-06-27T09:57:07.081Z,101193.55
2019-06-27T09:59:34.751Z,101198.13
2019-06-27T10:02:02.433Z,101193.52
2019-06-27T10:04:30.123Z,101191.25
2019-06-27T10:06:57.880Z,101190.88
2019-06-27T10:09:25.535Z,101190.00
2019-06-27T10:11:53.562Z,101191.08
2019-06-27T10:14:21.349Z,101195.28
2019-06-27T10:16:49.001Z,101186.52
2019-06-27T10:19:16.740Z,101186.88
2019-06-27T10:21:44.412Z,101185.78
2019-06-27T10:24:12.063Z,101174.80
2019-06-27T10:26:39.731Z,101177.08
2019-06-27T10:29:07.398Z,101182.34
2019-06-27T10:31:35.075Z,101187.72
2019-06-27T10:34:02.723Z,101172.80
2019-06-27T10:36:30.400Z,101171.05
2019-06-27T10:38:58.052Z,101180.97
2019-06-27T10:41:25.709Z,101170.30
2019-06-27T10:43:53.359Z,101174.15
2019-06-27T10:46:21.012Z,101175.88
2019-06-27T10:48:48.668Z,101170.70
2019-06-27T10:51:16.343Z,101164.75
2019-06-27T10:53:44.019Z,101171.16
2019-06-27T10:56:11.687Z,101163.81
2019-06-27T10:58:39.440Z,101160.42
2019-06-27T11:01:07.119Z,101167.48
2019-06-27T11:03:38.211Z,101155.97
2019-06-27T11:06:04.162Z,101153.48
2019-06-27T11:08:31.813Z,101153.11
2019-06-27T11:10:59.481Z,101153.68
2019-06-27T11:13:27.151Z,101153.06
2019-06-27T11:15:54.813Z,101153.66
2019-06-27T11:18:22.537Z,101148.91
2019-06-27T11:20:50.204Z,101142.18
2019-06-27T11:23:17.871Z,101144.32
2019-06-27T11:25:45.526Z,101146.34
2019-06-27T11:28:13.183Z,101151.66
2019-06-27T11:30:40.854Z,101150.66
2019-06-27T11:33:08.499Z,101134.48
2019-06-27T11:35:36.191Z,101129.23
2019-06-27T11:38:03.843Z,101120.61
2019-06-27T11:40:31.493Z,101129.14
2019-06-27T11:42:59.163Z,101128.59
2019-06-27T11:45:26.824Z,101133.85
2019-06-27T11:47:54.495Z,101131.16
2019-06-27T11:50:22.145Z,101122.54
2019-06-27T11:52:49.814Z,101112.52
2019-06-27T11:55:17.466Z,101105.18
2019-06-27T11:57:45.126Z,101118.21
2019-06-27T12:00:12.812Z,101114.82
2019-06-27T12:02:40.670Z,101122.16
2019-06-27T12:05:08.372Z,101123.53
2019-06-27T12:07:36.039Z,101123.59
2019-06-27T12:10:03.702Z,101117.20
2019-06-27T12:12:31.367Z,101109.41
2019-06-27T12:14:59.034Z,101116.42
2019-06-27T12:17:26.682Z,101115.39
2019-06-27T12:19:54.362Z,101113.98
2019-06-27T12:22:22.021Z,101114.34
2019-06-27T12:24:54.822Z,101112.57
2019-06-27T12:27:22.499Z,101111.87
2019-06-27T12:29:50.195Z,101112.08
2019-06-27T12:32:17.859Z,101102.13
2019-06-27T12:34:45.572Z,101097.23
2019-06-27T12:37:13.274Z,101096.98
2019-06-27T12:39:40.955Z,101098.67
2019-06-27T12:42:08.617Z,101097.38
2019-06-27T12:44:36.271Z,101100.95
2019-06-27T12:47:03.935Z,101088.67
2019-06-27T12:49:49.990Z,101096.00
2019-06-27T12:52:00.954Z,101073.64
2019-06-27T12:54:28.629Z,101075.02
2019-06-27T12:56:56.311Z,101076.41
2019-06-27T12:59:23.988Z,101069.45
2019-06-27T13:01:51.658Z,101078.84
2019-06-27T13:04:23.867Z,101061.46
2019-06-27T13:06:48.696Z,101081.06
2019-06-27T13:09:16.397Z,101064.50
2019-06-27T13:11:44.108Z,101062.67
2019-06-27T13:14:11.868Z,101055.96
2019-06-27T13:16:39.514Z,101055.58
2019-06-27T13:19:07.179Z,101047.70
2019-06-27T13:21:34.874Z,101056.89
2019-06-27T13:24:02.590Z,101060.07
2019-06-27T13:26:30.255Z,101053.98
2019-06-27T13:28:58.001Z,101046.48
2019-06-27T13:31:25.686Z,101046.64
2019-06-27T13:33:53.352Z,101035.42
2019-06-27T13:36:21.001Z,101036.44
2019-06-27T13:38:48.651Z,101032.76
2019-06-27T13:41:16.299Z,101027.95
2019-06-27T13:43:43.984Z,101024.63
2019-06-27T13:46:11.654Z,101017.91
2019-06-27T13:48:39.311Z,101022.72
2019-06-27T13:51:07.048Z,101012.73
2019-06-27T13:53:34.694Z,101026.84
2019-06-27T13:56:02.381Z,101017.37
2019-06-27T13:58:30.099Z,101027.59
2019-06-27T14:00:57.792Z,101022.09
2019-06-27T14:03:25.436Z,101018.14
2019-06-27T14:05:53.108Z,101024.08
2019-06-27T14:08:20.744Z,101025.12
2019-06-27T14:10:48.397Z,101006.80
2019-06-27T14:13:16.055Z,101011.12
2019-06-27T14:15:43.728Z,100998.09
2019-06-27T14:18:11.404Z,101005.33
2019-06-27T14:20:39.063Z,100999.80
2019-06-27T14:23:06.702Z,101007.58
2019-06-27T14:25:34.362Z,101005.91
2019-06-27T14:28:02.013Z,100994.30
2019-06-27T14:30:29.670Z,100990.26
2019-06-27T14:32:57.320Z,100985.98
2019-06-27T14:35:24.990Z,100997.33
2019-06-27T14:37:52.655Z,100992.37
2019-06-27T14:40:20.640Z,100999.22
2019-06-27T14:42:48.349Z,100992.47
2019-06-27T14:45:16.015Z,100983.67
2019-06-27T14:47:43.664Z,100978.80
2019-06-27T14:50:11.319Z,100973.59
2019-06-27T14:52:38.963Z,100983.31
2019-06-27T14:55:06.624Z,100974.09
2019-06-27T14:57:34.283Z,100978.52
2019-06-27T15:00:01.961Z,100971.41
2019-06-27T15:02:29.617Z,100979.39
2019-06-27T15:04:57.266Z,100967.04
2019-06-27T15:07:24.952Z,100967.96
2019-06-27T15:09:52.606Z,100967.81
2019-06-27T15:12:20.550Z,100961.94
2019-06-27T15:14:50.567Z,100957.98
2019-06-27T15:17:17.550Z,100957.42
2019-06-27T15:19:45.200Z,100956.33
2019-06-27T15:22:12.856Z,100945.16
2019-06-27T15:24:40.529Z,100943.41
2019-06-27T15:27:08.197Z,100948.16
2019-06-27T15:29:35.863Z,100941.45
2019-06-27T15:32:03.549Z,100948.30
2019-06-27T15:34:31.197Z,100943.88
2019-06-27T15:36:58.863Z,100937.12
2019-06-27T15:39:26.508Z,100950.75
2019-06-27T15:41:54.165Z,100943.66
2019-06-27T15:44:21.818Z,100942.95
2019-06-27T15:46:49.550Z,100953.19
2019-06-27T15:49:17.302Z,100943.56
2019-06-27T15:51:44.973Z,100934.11
2019-06-27T15:54:12.617Z,100939.09
2019-06-27T15:56:40.280Z,100937.39
2019-06-27T15:59:07.923Z,100942.13
2019-06-27T16:01:35.578Z,100944.65
2019-06-27T16:04:03.239Z,100940.84
2019-06-27T16:06:30.891Z,100938.09
2019-06-27T16:08:58.548Z,100929.94
2019-06-27T16:11:26.205Z,100940.41
2019-06-27T16:13:53.884Z,100933.06
2019-06-27T16:16:21.555Z,100929.56
2019-06-27T16:18:49.210Z,100925.35
2019-06-27T16:21:16.881Z,100932.97
2019-06-27T16:23:44.537Z,100927.56
2019-06-27T16:26:12.246Z,100922.70
2019-06-27T16:28:39.953Z,100930.53
2019-06-27T16:31:07.601Z,100926.48
2019-06-27T16:33:35.274Z,100928.33
2019-06-27T16:36:02.923Z,100925.14
2019-06-27T16:38:30.591Z,100919.79
2019-06-27T16:40:58.255Z,100921.63
2019-06-27T16:43:25.946Z,100932.37
2019-06-27T16:45:53.609Z,100936.11
2019-06-27T16:48:21.280Z,100932.29
2019-06-27T16:50:48.951Z,100926.73
2019-06-27T16:53:16.619Z,100924.20
2019-06-27T16:55:44.283Z,100940.81
2019-06-27T16:58:11.943Z,100925.58
2019-06-27T17:00:39.619Z,100931.81
2019-06-27T17:03:07.283Z,100937.01
2019-06-27T17:05:34.959Z,100932.53
2019-06-27T17:08:02.641Z,100928.79
2019-06-27T17:10:30.311Z,100936.55
2019-06-27T17:12:57.986Z,100937.56
2019-06-27T17:15:25.649Z,100939.20
2019-06-27T17:17:53.312Z,100933.72
2019-06-27T17:20:20.974Z,100927.85
2019-06-27T17:22:48.636Z,100924.86
2019-06-27T17:25:16.275Z,100942.47
2019-06-27T17:27:43.948Z,100936.42
2019-06-27T17:30:13.392Z,100937.02
2019-06-27T17:32:41.071Z,100937.36
2019-06-27T17:35:08.734Z,100932.22
2019-06-27T17:37:36.399Z,100929.52
2019-06-27T17:40:04.059Z,100939.72
2019-06-27T17:42:31.704Z,100937.72
2019-06-27T17:44:59.360Z,100942.81
2019-06-27T17:47:27.023Z,100939.93
2019-06-27T17:49:54.675Z,100948.41
2019-06-27T17:52:22.338Z,100947.81
2019-06-27T17:54:50.063Z,100940.27
2019-06-27T17:57:17.742Z,100940.27
2019-06-27T17:59:45.424Z,100952.23
2019-06-27T18:02:13.076Z,100956.55
2019-06-27T18:04:40.759Z,100951.91
2019-06-27T18:07:14.196Z,100961.46
2019-06-27T18:09:37.811Z,100948.51
2019-06-27T18:12:05.468Z,100952.08
2019-06-27T18:14:33.164Z,100949.87
2019-06-27T18:17:00.832Z,100955.27
2019-06-27T18:19:28.501Z,100965.77
2019-06-27T18:21:56.202Z,100950.45
2019-06-27T18:24:23.966Z,100963.05
2019-06-27T18:26:57.125Z,100958.02
2019-06-27T18:29:24.791Z,100964.00
2019-06-27T18:31:52.448Z,100957.50
2019-06-27T18:34:25.211Z,100956.13
2019-06-27T18:36:52.948Z,100962.24
2019-06-27T18:39:20.610Z,100963.61
2019-06-27T18:41:48.266Z,100968.70
2019-06-27T18:44:15.928Z,100963.77
2019-06-27T18:46:43.670Z,100963.81
2019-06-27T18:49:11.528Z,100972.16
2019-06-27T18:51:39.190Z,100970.08
2019-06-27T18:54:06.873Z,100966.47
2019-06-27T18:56:34.543Z,100958.86
2019-06-27T18:59:02.211Z,100965.52
2019-06-27T19:01:29.864Z,100972.55
2019-06-27T19:03:57.559Z,100971.10
2019-06-27T19:06:25.235Z,100976.25
2019-06-27T19:08:52.979Z,100980.87
2019-06-27T19:11:20.636Z,100974.80
2019-06-27T19:13:48.297Z,100982.12
2019-06-27T19:16:15.972Z,100978.86
2019-06-27T19:18:45.532Z,100987.47
2019-06-27T19:21:18.197Z,100984.02
2019-06-27T19:23:52.575Z,100984.00
2019-06-27T19:26:20.243Z,100995.14
2019-06-27T19:28:47.931Z,100998.08
2019-06-27T19:31:15.582Z,100997.66
2019-06-27T19:33:43.249Z,101004.80
2019-06-27T19:36:10.899Z,101012.04
2019-06-27T19:38:38.588Z,101014.22
2019-06-27T19:41:06.231Z,101022.31
2019-06-27T19:43:33.891Z,101023.60
2019-06-27T19:46:01.572Z,101021.84
2019-06-27T19:48:29.253Z,101022.77
2019-06-27T19:50:56.914Z,101023.72
2019-06-27T19:53:24.587Z,101027.05
2019-06-27T19:55:52.235Z,101032.94
2019-06-27T19:58:19.914Z,101034.48
2019-06-27T20:00:47.576Z,101039.61
2019-06-27T20:03:15.235Z,101047.98
2019-06-27T20:05:42.908Z,101048.20
2019-06-27T20:08:18.915Z,101042.09
2019-06-27T20:10:39.917Z,101045.26
2019-06-27T20:13:07.602Z,101051.13
2019-06-27T20:15:35.347Z,101054.98
2019-06-27T20:18:03.015Z,101052.57
2019-06-27T20:20:30.691Z,101044.95
2019-06-27T20:22:58.343Z,101050.50
2019-06-27T20:25:26.021Z,101047.58
2019-06-27T20:27:53.673Z,101054.97
2019-06-27T20:30:21.411Z,101062.72
2019-06-27T20:32:49.055Z,101067.77
2019-06-27T20:35:16.714Z,101062.31
2019-06-27T20:37:44.469Z,101064.41
2019-06-27T20:40:12.112Z,101066.48
2019-06-27T20:42:39.808Z,101069.91
2019-06-27T20:45:07.532Z,101075.95
2019-06-27T20:47:35.177Z,101075.80
2019-06-27T20:50:02.834Z,101076.31
2019-06-27T20:52:30.487Z,101075.98
2019-06-27T20:54:58.160Z,101072.86
2019-06-27T20:57:25.896Z,101078.44
2019-06-27T20:59:53.582Z,101082.92
2019-06-27T21:02:21.233Z,101087.13
2019-06-27T21:04:48.897Z,101088.89
2019-06-27T21:07:16.552Z,101094.51
2019-06-27T21:09:44.224Z,101092.73
2019-06-27T21:12:11.882Z,101098.72
2019-06-27T21:14:39.569Z,101106.80
2019-06-27T21:17:07.236Z,101104.95
2019-06-27T21:19:34.901Z,101104.53
2019-06-27T21:22:03.660Z,101111.39
2019-06-27T21:24:31.351Z,101116.20
2019-06-27T21:26:59.035Z,101124.55
2019-06-27T21:29:26.751Z,101123.80
2019-06-27T21:31:54.542Z,101129.27
2019-06-27T21:34:22.378Z,101135.59
2019-06-27T21:36:50.167Z,101136.82
2019-06-27T21:39:17.822Z,101132.92
2019-06-27T21:41:45.482Z,101136.66
2019-06-27T21:44:13.149Z,101135.26
2019-06-27T21:46:40.808Z,101146.35
2019-06-27T21:49:11.364Z,101144.14
2019-06-27T21:51:37.831Z,101151.83
2019-06-27T21:54:05.479Z,101148.84
2019-06-27T21:56:33.162Z,101152.22
2019-06-27T21:59:00.902Z,101149.91
2019-06-27T22:01:28.584Z,101154.51
2019-06-27T22:03:56.303Z,101157.56
2019-06-27T22:06:23.967Z,101155.51
2019-06-27T22:08:51.616Z,101167.62
2019-06-27T22:11:19.284Z,101162.31
2019-06-27T22:13:47.061Z,101168.30
2019-06-27T22:16:15.033Z,101160.45
2019-06-27T22:18:42.717Z,101163.55
2019-06-27T22:21:10.381Z,101164.86
2019-06-27T22:23:38.031Z,101167.62
2019-06-27T22:26:05.691Z,101171.36
2019-06-27T22:28:33.391Z,101168.08
2019-06-27T22:31:01.146Z,101168.94
2019-06-27T22:33:28.785Z,101170.36
2019-06-27T22:35:56.431Z,101166.66
2019-06-27T22:38:29.380Z,101164.56
2019-06-27T22:41:02.388Z,101168.30
2019-06-27T22:43:35.257Z,101169.24
2019-06-27T22:46:08.188Z,101174.42
2019-06-27T22:48:35.483Z,101175.13
2019-06-27T22:51:15.310Z,101175.92
2019-06-27T22:53:49.693Z,101178.86
2019-06-27T22:56:17.398Z,101176.54
2019-06-27T22:58:45.031Z,101181.98
2019-06-27T23:01:12.691Z,101183.36
2019-06-27T23:03:40.349Z,101176.69
2019-06-27T23:06:08.040Z,101188.08
2019-06-27T23:08:35.693Z,101181.98
2019-06-27T23:11:03.423Z,101186.41
2019-06-27T23:13:31.135Z,101184.73
2019-06-27T23:15:58.787Z,101179.70
2019-06-27T23:18:26.451Z,101182.39
2019-06-27T23:20:54.092Z,101182.39
2019-06-27T23:23:21.808Z,101184.44
2019-06-27T23:25:49.476Z,101183.95
2019-06-27T23:28:17.295Z,101182.28
2019-06-27T23:30:44.958Z,101188.06
2019-06-27T23:33:12.623Z,101192.48
2019-06-27T23:35:40.287Z,101198.43
2019-06-27T23:38:07.939Z,101192.01
2019-06-27T23:40:35.675Z,101194.70
2019-06-27T23:43:03.381Z,101200.63
2019-06-27T23:45:31.257Z,101198.59
2019-06-27T23:47:58.996Z,101205.86
2019-06-27T23:50:26.647Z,101209.92
2019-06-27T23:52:54.332Z,101210.29
2019-06-27T23:55:22.501Z,101211.29
2019-06-27T23:57:50.188Z,101202.97
